sensor_id;sensor_type;location;lat;lon;timestamp;pressure;altitude;pressure_sealevel;temperature;humidity
54306;BME280;66145;45.188;5.712;2024-03-02T00:02:23;98322.88;;;19.52;42.21
54306;BME280;66145;45.188;5.712;2024-03-02T00:04:49;98336.63;;;19.64;42.05
54306;BME280;66145;45.188;5.712;2024-03-02T00:07:14;98335.94;;;19.67;41.94
54306;BME280;66145;45.188;5.712;2024-03-02T00:09:40;98332.75;;;19.65;42.03
54306;BME280;66145;45.188;5.712;2024-03-02T00:12:05;98326.66;;;19.59;41.86
54306;BME280;66145;45.188;5.712;2024-03-02T00:14:31;98336.75;;;19.68;41.75
54306;BME280;66145;45.188;5.712;2024-03-02T00:16:56;98346.22;;;19.70;41.78
54306;BME280;66145;45.188;5.712;2024-03-02T00:19:22;98322.31;;;19.58;41.86
54306;BME280;66145;45.188;5.712;2024-03-02T00:21:48;98340.06;;;19.61;42.03
54306;BME280;66145;45.188;5.712;2024-03-02T00:24:53;98345.28;;;19.66;41.88
54306;BME280;66145;45.188;5.712;2024-03-02T00:27:14;98328.94;;;19.57;41.86
54306;BME280;66145;45.188;5.712;2024-03-02T00:29:40;98320.72;;;19.57;42.27
54306;BME280;66145;45.188;5.712;2024-03-02T00:32:12;98316.84;;;19.46;42.11
54306;BME280;66145;45.188;5.712;2024-03-02T00:34:39;98327.91;;;19.50;42.14
54306;BME280;66145;45.188;5.712;2024-03-02T00:37:05;98334.44;;;19.57;42.17
54306;BME280;66145;45.188;5.712;2024-03-02T00:39:30;98349.06;;;19.61;42.03
54306;BME280;66145;45.188;5.712;2024-03-02T00:41:55;98343.13;;;19.59;41.96
54306;BME280;66145;45.188;5.712;2024-03-02T00:44:25;98338.00;;;19.58;42.03
54306;BME280;66145;45.188;5.712;2024-03-02T00:46:51;98331.94;;;19.52;42.04
54306;BME280;66145;45.188;5.712;2024-03-02T00:49:25;98347.00;;;19.58;41.84
54306;BME280;66145;45.188;5.712;2024-03-02T00:51:53;98360.97;;;19.66;41.89
54306;BME280;66145;45.188;5.712;2024-03-02T00:54:20;98326.66;;;19.47;41.78
54306;BME280;66145;45.188;5.712;2024-03-02T00:56:47;98347.16;;;19.62;41.71
54306;BME280;66145;45.188;5.712;2024-03-02T00:59:13;98351.94;;;19.65;41.67
54306;BME280;66145;45.188;5.712;2024-03-02T01:01:38;98350.22;;;19.60;41.62
54306;BME280;66145;45.188;5.712;2024-03-02T01:04:03;98354.09;;;19.59;41.48
54306;BME280;66145;45.188;5.712;2024-03-02T01:06:30;98354.22;;;19.63;41.74
54306;BME280;66145;45.188;5.712;2024-03-02T01:08:56;98360.28;;;19.69;41.53
54306;BME280;66145;45.188;5.712;2024-03-02T01:11:21;98355.94;;;19.68;41.65
54306;BME280;66145;45.188;5.712;2024-03-02T01:13:49;98351.94;;;19.65;41.64
54306;BME280;66145;45.188;5.712;2024-03-02T01:16:15;98347.72;;;19.68;41.80
54306;BME280;66145;45.188;5.712;2024-03-02T01:18:41;98345.75;;;19.68;41.99
54306;BME280;66145;45.188;5.712;2024-03-02T01:21:07;98338.66;;;19.67;41.90
54306;BME280;66145;45.188;5.712;2024-03-02T01:23:32;98337.31;;;19.73;41.94
54306;BME280;66145;45.188;5.712;2024-03-02T01:25:58;98331.59;;;19.66;41.98
54306;BME280;66145;45.188;5.712;2024-03-02T01:28:23;98354.69;;;19.78;42.03
54306;BME280;66145;45.188;5.712;2024-03-02T01:30:49;98355.38;;;19.74;41.96
54306;BME280;66145;45.188;5.712;2024-03-02T01:33:15;98342.91;;;19.65;42.41
54306;BME280;66145;45.188;5.712;2024-03-02T01:35:40;98355.03;;;19.76;42.19
54306;BME280;66145;45.188;5.712;2024-03-02T01:38:06;98338.00;;;19.70;41.98
54306;BME280;66145;45.188;5.712;2024-03-02T01:40:35;98350.00;;;19.78;42.23
54306;BME280;66145;45.188;5.712;2024-03-02T01:43:01;98346.00;;;19.75;42.25
54306;BME280;66145;45.188;5.712;2024-03-02T01:45:27;98321.88;;;19.69;42.10
54306;BME280;66145;45.188;5.712;2024-03-02T01:47:53;98330.56;;;19.71;42.21
54306;BME280;66145;45.188;5.712;2024-03-02T01:50:29;98338.09;;;19.74;42.23
54306;BME280;66145;45.188;5.712;2024-03-02T01:52:58;98335.25;;;19.70;42.28
54306;BME280;66145;45.188;5.712;2024-03-02T01:55:24;98313.19;;;19.54;42.19
54306;BME280;66145;45.188;5.712;2024-03-02T01:57:49;98347.03;;;19.71;42.34
54306;BME280;66145;45.188;5.712;2024-03-02T02:00:19;98315.22;;;19.57;42.35
54306;BME280;66145;45.188;5.712;2024-03-02T02:02:46;98339.13;;;19.69;42.29
54306;BME280;66145;45.188;5.712;2024-03-02T02:05:11;98339.13;;;19.69;42.45
54306;BME280;66145;45.188;5.712;2024-03-02T02:07:37;98339.59;;;19.71;42.12
54306;BME280;66145;45.188;5.712;2024-03-02T02:10:03;98332.03;;;19.68;42.33
54306;BME280;66145;45.188;5.712;2024-03-02T02:12:28;98321.44;;;19.67;42.20
54306;BME280;66145;45.188;5.712;2024-03-02T02:14:54;98319.03;;;19.65;42.49
54306;BME280;66145;45.188;5.712;2024-03-02T02:17:19;98288.28;;;19.47;42.28
54306;BME280;66145;45.188;5.712;2024-03-02T02:19:45;98329.44;;;19.72;42.09
54306;BME280;66145;45.188;5.712;2024-03-02T02:22:10;98310.00;;;19.65;42.38
54306;BME280;66145;45.188;5.712;2024-03-02T02:24:39;98320.84;;;19.73;42.42
54306;BME280;66145;45.188;5.712;2024-03-02T02:27:05;98320.06;;;19.73;42.42
54306;BME280;66145;45.188;5.712;2024-03-02T02:29:30;98318.47;;;19.72;42.52
54306;BME280;66145;45.188;5.712;2024-03-02T02:31:56;98317.31;;;19.73;42.52
54306;BME280;66145;45.188;5.712;2024-03-02T02:34:21;98312.16;;;19.71;42.48
54306;BME280;66145;45.188;5.712;2024-03-02T02:36:46;98308.28;;;19.72;42.47
54306;BME280;66145;45.188;5.712;2024-03-02T02:39:15;98302.91;;;19.64;42.60
54306;BME280;66145;45.188;5.712;2024-03-02T02:41:42;98314.44;;;19.69;42.53
54306;BME280;66145;45.188;5.712;2024-03-02T02:44:07;98308.84;;;19.66;42.83
54306;BME280;66145;45.188;5.712;2024-03-02T02:46:33;98303.72;;;19.64;42.54
54306;BME280;66145;45.188;5.712;2024-03-02T02:48:58;98297.09;;;19.65;42.67
54306;BME280;66145;45.188;5.712;2024-03-02T02:51:24;98307.03;;;19.70;42.68
54306;BME280;66145;45.188;5.712;2024-03-02T02:53:51;98277.09;;;19.52;42.53
54306;BME280;66145;45.188;5.712;2024-03-02T02:56:16;98295.81;;;19.63;42.77
54306;BME280;66145;45.188;5.712;2024-03-02T02:58:42;98309.09;;;19.73;42.58
54306;BME280;66145;45.188;5.712;2024-03-02T03:01:07;98301.53;;;19.70;42.56
54306;BME280;66145;45.188;5.712;2024-03-02T03:03:33;98302.78;;;19.72;42.62
54306;BME280;66145;45.188;5.712;2024-03-02T03:05:58;98289.75;;;19.69;42.67
54306;BME280;66145;45.188;5.712;2024-03-02T03:08:23;98277.75;;;19.61;42.70
54306;BME280;66145;45.188;5.712;2024-03-02T03:10:49;98278.56;;;19.62;42.62
54306;BME280;66145;45.188;5.712;2024-03-02T03:13:14;98290.22;;;19.71;42.55
54306;BME280;66145;45.188;5.712;2024-03-02T03:15:40;98284.16;;;19.66;42.68
54306;BME280;66145;45.188;5.712;2024-03-02T03:18:05;98295.25;;;19.69;42.78
54306;BME280;66145;45.188;5.712;2024-03-02T03:20:30;98287.25;;;19.64;42.87
54306;BME280;66145;45.188;5.712;2024-03-02T03:22:57;98298.66;;;19.66;42.95
54306;BME280;66145;45.188;5.712;2024-03-02T03:25:22;98285.97;;;19.61;42.65
54306;BME280;66145;45.188;5.712;2024-03-02T03:27:48;98284.16;;;19.66;43.06
54306;BME280;66145;45.188;5.712;2024-03-02T03:30:13;98286.78;;;19.74;42.72
54306;BME280;66145;45.188;5.712;2024-03-02T03:32:39;98276.38;;;19.68;42.60
54306;BME280;66145;45.188;5.712;2024-03-02T03:35:05;98270.31;;;19.74;42.69
54306;BME280;66145;45.188;5.712;2024-03-02T03:37:31;98254.78;;;19.66;42.50
54306;BME280;66145;45.188;5.712;2024-03-02T03:40:00;98250.69;;;19.60;43.15
54306;BME280;66145;45.188;5.712;2024-03-02T03:42:26;98256.38;;;19.67;42.83
54306;BME280;66145;45.188;5.712;2024-03-02T03:44:51;98269.88;;;19.72;42.95
54306;BME280;66145;45.188;5.712;2024-03-02T03:47:17;98271.94;;;19.75;43.07
54306;BME280;66145;45.188;5.712;2024-03-02T03:49:42;98270.31;;;19.74;42.91
54306;BME280;66145;45.188;5.712;2024-03-02T03:52:08;98269.88;;;19.72;42.99
54306;BME280;66145;45.188;5.712;2024-03-02T03:54:33;98271.81;;;19.72;43.14
54306;BME280;66145;45.188;5.712;2024-03-02T03:56:58;98256.50;;;19.71;43.07
54306;BME280;66145;45.188;5.712;2024-03-02T03:59:23;98256.97;;;19.73;43.14
54306;BME280;66145;45.188;5.712;2024-03-02T04:01:49;98244.16;;;19.65;43.04
54306;BME280;66145;45.188;5.712;2024-03-02T04:04:14;98257.97;;;19.68;42.75
54306;BME280;66145;45.188;5.712;2024-03-02T04:06:40;98223.84;;;19.53;43.30
54306;BME280;66145;45.188;5.712;2024-03-02T04:09:05;98236.28;;;19.63;43.23
54306;BME280;66145;45.188;5.712;2024-03-02T04:11:30;98237.53;;;19.66;43.27
54306;BME280;66145;45.188;5.712;2024-03-02T04:13:56;98247.69;;;19.78;43.23
54306;BME280;66145;45.188;5.712;2024-03-02T04:16:21;98247.56;;;19.74;43.42
54306;BME280;66145;45.188;5.712;2024-03-02T04:18:46;98245.53;;;19.71;43.07
54306;BME280;66145;45.188;5.712;2024-03-02T04:21:12;98239.00;;;19.75;43.05
54306;BME280;66145;45.188;5.712;2024-03-02T04:23:37;98249.75;;;19.81;43.11
54306;BME280;66145;45.188;5.712;2024-03-02T04:26:02;98234.56;;;19.71;43.21
54306;BME280;66145;45.188;5.712;2024-03-02T04:28:28;98243.09;;;19.82;43.33
54306;BME280;66145;45.188;5.712;2024-03-02T04:30:53;98238.41;;;19.82;43.33
54306;BME280;66145;45.188;5.712;2024-03-02T04:33:18;98236.91;;;19.85;43.56
54306;BME280;66145;45.188;5.712;2024-03-02T04:35:44;98234.06;;;19.81;43.45
54306;BME280;66145;45.188;5.712;2024-03-02T04:38:09;98226.06;;;19.76;43.60
54306;BME280;66145;45.188;5.712;2024-03-02T04:40:34;98211.34;;;19.68;43.54
54306;BME280;66145;45.188;5.712;2024-03-02T04:43:00;98241.94;;;19.83;43.44
54306;BME280;66145;45.188;5.712;2024-03-02T04:45:25;98238.19;;;19.75;43.48
54306;BME280;66145;45.188;5.712;2024-03-02T04:47:50;98239.00;;;19.75;43.30
54306;BME280;66145;45.188;5.712;2024-03-02T04:50:15;98254.19;;;19.85;43.09
54306;BME280;66145;45.188;5.712;2024-03-02T04:52:41;98255.34;;;19.84;43.28
54306;BME280;66145;45.188;5.712;2024-03-02T04:55:06;98253.88;;;19.87;43.26
54306;BME280;66145;45.188;5.712;2024-03-02T04:57:35;98247.09;;;19.84;43.36
54306;BME280;66145;45.188;5.712;2024-03-02T05:00:00;98224.94;;;19.77;43.20
54306;BME280;66145;45.188;5.712;2024-03-02T05:02:26;98240.00;;;19.83;43.10
54306;BME280;66145;45.188;5.712;2024-03-02T05:04:51;98232.00;;;19.78;43.44
54306;BME280;66145;45.188;5.712;2024-03-02T05:07:16;98241.75;;;19.88;43.31
54306;BME280;66145;45.188;5.712;2024-03-02T05:09:41;98232.38;;;19.89;43.25
54306;BME280;66145;45.188;5.712;2024-03-02T05:12:07;98231.09;;;19.86;43.28
54306;BME280;66145;45.188;5.712;2024-03-02T05:15:06;98231.69;;;19.80;43.22
54306;BME280;66145;45.188;5.712;2024-03-02T05:17:32;98232.47;;;19.80;43.17
54306;BME280;66145;45.188;5.712;2024-03-02T05:19:57;98246.09;;;19.89;43.27
54306;BME280;66145;45.188;5.712;2024-03-02T05:22:23;98227.34;;;19.79;43.13
54306;BME280;66145;45.188;5.712;2024-03-02T05:24:48;98208.59;;;19.68;43.46
54306;BME280;66145;45.188;5.712;2024-03-02T05:27:13;98230.19;;;19.82;43.24
54306;BME280;66145;45.188;5.712;2024-03-02T05:29:40;98225.84;;;19.81;43.58
54306;BME280;66145;45.188;5.712;2024-03-02T05:32:06;98217.16;;;19.79;43.32
54306;BME280;66145;45.188;5.712;2024-03-02T05:34:31;98230.97;;;19.83;43.38
54306;BME280;66145;45.188;5.712;2024-03-02T05:36:58;98223.44;;;19.80;43.21
54306;BME280;66145;45.188;5.712;2024-03-02T05:39:23;98193.19;;;19.64;43.34
54306;BME280;66145;45.188;5.712;2024-03-02T05:41:48;98201.63;;;19.71;43.23
54306;BME280;66145;45.188;5.712;2024-03-02T05:44:14;98212.34;;;19.76;43.32
54306;BME280;66145;45.188;5.712;2024-03-02T05:46:40;98228.59;;;19.81;43.21
54306;BME280;66145;45.188;5.712;2024-03-02T05:49:06;98229.03;;;19.83;43.19
54306;BME280;66145;45.188;5.712;2024-03-02T05:51:33;98217.84;;;19.76;43.32
54306;BME280;66145;45.188;5.712;2024-03-02T05:53:58;98220.13;;;19.86;43.12
54306;BME280;66145;45.188;5.712;2024-03-02T05:56:23;98204.56;;;19.78;43.08
54306;BME280;66145;45.188;5.712;2024-03-02T05:58:48;98213.53;;;19.87;43.00
54306;BME280;66145;45.188;5.712;2024-03-02T06:01:34;98158.91;;;19.57;43.13
54306;BME280;66145;45.188;5.712;2024-03-02T06:03:59;98189.84;;;19.70;42.94
54306;BME280;66145;45.188;5.712;2024-03-02T06:06:24;98203.44;;;19.79;43.08
54306;BME280;66145;45.188;5.712;2024-03-02T06:08:50;98197.84;;;19.75;43.13
54306;BME280;66145;45.188;5.712;2024-03-02T06:11:15;98192.38;;;19.75;43.10
54306;BME280;66145;45.188;5.712;2024-03-02T06:13:41;98179.22;;;19.69;42.95
54306;BME280;66145;45.188;5.712;2024-03-02T06:16:06;98191.22;;;19.76;43.12
54306;BME280;66145;45.188;5.712;2024-03-02T06:18:32;98185.28;;;19.74;43.05
54306;BME280;66145;45.188;5.712;2024-03-02T06:20:57;98182.97;;;19.76;42.77
54306;BME280;66145;45.188;5.712;2024-03-02T06:23:22;98173.94;;;19.76;43.18
54306;BME280;66145;45.188;5.712;2024-03-02T06:25:48;98179.56;;;19.80;42.81
54306;BME280;66145;45.188;5.712;2024-03-02T06:28:13;98178.50;;;19.84;43.28
54306;BME280;66145;45.188;5.712;2024-03-02T06:30:41;98193.66;;;20.06;42.42
54306;BME280;66145;45.188;5.712;2024-03-02T06:33:07;98179.72;;;20.12;41.90
54306;BME280;66145;45.188;5.712;2024-03-02T06:35:32;98180.19;;;20.30;41.39
54306;BME280;66145;45.188;5.712;2024-03-02T06:37:58;98187.88;;;20.52;40.82
54306;BME280;66145;45.188;5.712;2024-03-02T06:40:23;98167.66;;;20.61;40.15
54306;BME280;66145;45.188;5.712;2024-03-02T06:42:48;98166.34;;;20.71;39.92
54306;BME280;66145;45.188;5.712;2024-03-02T06:45:14;98184.13;;;20.89;39.81
54306;BME280;66145;45.188;5.712;2024-03-02T06:47:39;98169.50;;;21.01;39.55
54306;BME280;66145;45.188;5.712;2024-03-02T06:50:05;98137.84;;;20.91;39.30
54306;BME280;66145;45.188;5.712;2024-03-02T06:52:32;98161.03;;;21.10;39.07
54306;BME280;66145;45.188;5.712;2024-03-02T06:54:57;98173.53;;;21.23;39.09
54306;BME280;66145;45.188;5.712;2024-03-02T06:57:22;98172.19;;;21.33;38.63
54306;BME280;66145;45.188;5.712;2024-03-02T06:59:49;98145.41;;;21.30;38.67
54306;BME280;66145;45.188;5.712;2024-03-02T07:02:16;98156.28;;;21.42;38.29
54306;BME280;66145;45.188;5.712;2024-03-02T07:04:42;98152.72;;;21.42;38.26
54306;BME280;66145;45.188;5.712;2024-03-02T07:07:07;98148.53;;;21.48;38.16
54306;BME280;66145;45.188;5.712;2024-03-02T07:09:32;98155.38;;;21.54;38.21
54306;BME280;66145;45.188;5.712;2024-03-02T07:11:58;98137.59;;;21.52;38.31
54306;BME280;66145;45.188;5.712;2024-03-02T07:14:23;98125.44;;;21.53;38.12
54306;BME280;66145;45.188;5.712;2024-03-02T07:17:08;98135.94;;;21.63;38.33
54306;BME280;66145;45.188;5.712;2024-03-02T07:19:34;98146.44;;;21.77;38.03
54306;BME280;66145;45.188;5.712;2024-03-02T07:22:00;98139.31;;;21.76;37.95
54306;BME280;66145;45.188;5.712;2024-03-02T07:24:25;98140.06;;;21.73;38.14
54306;BME280;66145;45.188;5.712;2024-03-02T07:26:50;98101.56;;;21.57;38.20
54306;BME280;66145;45.188;5.712;2024-03-02T07:29:16;98112.91;;;21.71;38.12
54306;BME280;66145;45.188;5.712;2024-03-02T07:31:41;98118.56;;;21.79;38.02
54306;BME280;66145;45.188;5.712;2024-03-02T07:34:07;98109.44;;;21.75;37.98
54306;BME280;66145;45.188;5.712;2024-03-02T07:36:32;98102.16;;;21.66;37.83
54306;BME280;66145;45.188;5.712;2024-03-02T07:38:57;98125.66;;;21.80;37.98
54306;BME280;66145;45.188;5.712;2024-03-02T07:41:23;98126.94;;;21.66;37.95
54306;BME280;66145;45.188;5.712;2024-03-02T07:43:48;98105.41;;;21.52;37.80
54306;BME280;66145;45.188;5.712;2024-03-02T07:46:14;98121.16;;;21.71;37.68
54306;BME280;66145;45.188;5.712;2024-03-02T07:48:39;98108.13;;;21.68;37.74
54306;BME280;66145;45.188;5.712;2024-03-02T07:51:05;98110.00;;;21.64;37.71
54306;BME280;66145;45.188;5.712;2024-03-02T07:53:30;98108.22;;;21.72;37.63
54306;BME280;66145;45.188;5.712;2024-03-02T07:55:56;98088.06;;;21.68;37.68
54306;BME280;66145;45.188;5.712;2024-03-02T07:58:26;98098.84;;;21.77;37.41
54306;BME280;66145;45.188;5.712;2024-03-02T08:00:52;98104.72;;;21.75;37.66
54306;BME280;66145;45.188;5.712;2024-03-02T08:03:17;98099.28;;;21.79;37.66
54306;BME280;66145;45.188;5.712;2024-03-02T08:05:44;98092.53;;;21.76;37.64
54306;BME280;66145;45.188;5.712;2024-03-02T08:08:09;98090.09;;;21.71;37.54
54306;BME280;66145;45.188;5.712;2024-03-02T08:10:34;98092.25;;;21.81;37.46
54306;BME280;66145;45.188;5.712;2024-03-02T08:13:01;98075.59;;;21.74;37.57
54306;BME280;66145;45.188;5.712;2024-03-02T08:15:26;98065.78;;;21.73;37.65
54306;BME280;66145;45.188;5.712;2024-03-02T08:17:52;98091.88;;;21.83;37.47
54306;BME280;66145;45.188;5.712;2024-03-02T08:20:17;98085.59;;;21.82;37.76
54306;BME280;66145;45.188;5.712;2024-03-02T08:22:42;98066.00;;;21.64;37.89
54306;BME280;66145;45.188;5.712;2024-03-02T08:25:08;98071.41;;;21.80;37.75
54306;BME280;66145;45.188;5.712;2024-03-02T08:27:34;98073.66;;;21.75;37.79
54306;BME280;66145;45.188;5.712;2024-03-02T08:30:00;98057.44;;;21.69;37.89
54306;BME280;66145;45.188;5.712;2024-03-02T08:32:25;98059.41;;;21.69;37.97
54306;BME280;66145;45.188;5.712;2024-03-02T08:34:50;98059.03;;;21.70;38.19
54306;BME280;66145;45.188;5.712;2024-03-02T08:37:16;98057.06;;;21.71;37.95
54306;BME280;66145;45.188;5.712;2024-03-02T08:39:41;98034.84;;;21.60;37.90
54306;BME280;66145;45.188;5.712;2024-03-02T08:42:07;98045.75;;;21.76;37.82
54306;BME280;66145;45.188;5.712;2024-03-02T08:44:33;98033.09;;;21.71;37.89
54306;BME280;66145;45.188;5.712;2024-03-02T08:49:24;98036.78;;;21.79;38.04
54306;BME280;66145;45.188;5.712;2024-03-02T08:51:49;98032.00;;;21.76;37.78
54306;BME280;66145;45.188;5.712;2024-03-02T08:54:21;98020.88;;;21.69;37.96
54306;BME280;66145;45.188;5.712;2024-03-02T08:56:46;98013.84;;;21.71;38.05
54306;BME280;66145;45.188;5.712;2024-03-02T08:59:11;98026.19;;;21.81;37.76
54306;BME280;66145;45.188;5.712;2024-03-02T09:01:37;98017.88;;;21.78;37.98
54306;BME280;66145;45.188;5.712;2024-03-02T09:04:06;98025.00;;;21.79;38.08
54306;BME280;66145;45.188;5.712;2024-03-02T09:06:32;97991.25;;;21.62;38.03
54306;BME280;66145;45.188;5.712;2024-03-02T09:08:57;97998.69;;;21.81;37.80
54306;BME280;66145;45.188;5.712;2024-03-02T09:11:23;98013.97;;;21.79;38.02
54306;BME280;66145;45.188;5.712;2024-03-02T09:13:49;97997.38;;;21.75;37.96
54306;BME280;66145;45.188;5.712;2024-03-02T09:16:14;97991.09;;;21.75;37.76
54306;BME280;66145;45.188;5.712;2024-03-02T09:18:39;97993.66;;;21.87;37.83
54306;BME280;66145;45.188;5.712;2024-03-02T09:21:05;97979.72;;;21.76;37.97
54306;BME280;66145;45.188;5.712;2024-03-02T09:23:30;97975.50;;;21.82;38.08
54306;BME280;66145;45.188;5.712;2024-03-02T09:25:55;97973.53;;;21.83;38.24
54306;BME280;66145;45.188;5.712;2024-03-02T09:28:20;97956.03;;;21.71;37.99
54306;BME280;66145;45.188;5.712;2024-03-02T09:30:46;97960.16;;;21.81;37.95
54306;BME280;66145;45.188;5.712;2024-03-02T09:33:11;97963.78;;;21.85;38.23
54306;BME280;66145;45.188;5.712;2024-03-02T09:35:36;97961.88;;;21.90;37.97
54306;BME280;66145;45.188;5.712;2024-03-02T09:38:02;97960.63;;;21.87;37.94
54306;BME280;66145;45.188;5.712;2024-03-02T09:40:28;97941.19;;;21.76;38.29
54306;BME280;66145;45.188;5.712;2024-03-02T09:42:54;97956.25;;;21.82;38.14
54306;BME280;66145;45.188;5.712;2024-03-02T09:45:23;97935.50;;;21.88;38.31
54306;BME280;66145;45.188;5.712;2024-03-02T09:47:49;97947.00;;;21.94;38.29
54306;BME280;66145;45.188;5.712;2024-03-02T09:50:15;97949.75;;;21.94;38.37
54306;BME280;66145;45.188;5.712;2024-03-02T09:52:42;97951.34;;;21.95;38.09
54306;BME280;66145;45.188;5.712;2024-03-02T09:55:08;97946.28;;;21.97;38.12
54306;BME280;66145;45.188;5.712;2024-03-02T09:57:33;97946.63;;;21.96;38.22
54306;BME280;66145;45.188;5.712;2024-03-02T09:59:59;97929.56;;;21.86;37.98
54306;BME280;66145;45.188;5.712;2024-03-02T10:02:24;97913.84;;;21.87;37.92
54306;BME280;66145;45.188;5.712;2024-03-02T10:04:50;97930.97;;;22.00;38.15
54306;BME280;66145;45.188;5.712;2024-03-02T10:07:16;97912.63;;;21.84;38.07
54306;BME280;66145;45.188;5.712;2024-03-02T10:09:43;97911.09;;;21.87;38.18
54306;BME280;66145;45.188;5.712;2024-03-02T10:12:11;97904.81;;;21.86;38.08
54306;BME280;66145;45.188;5.712;2024-03-02T10:14:37;97908.03;;;21.92;37.81
54306;BME280;66145;45.188;5.712;2024-03-02T10:17:07;97894.97;;;21.85;37.99
54306;BME280;66145;45.188;5.712;2024-03-02T10:19:33;97888.66;;;21.85;38.02
54306;BME280;66145;45.188;5.712;2024-03-02T10:22:04;97890.72;;;21.92;37.94
54306;BME280;66145;45.188;5.712;2024-03-02T10:24:49;97894.63;;;21.91;38.04
54306;BME280;66145;45.188;5.712;2024-03-02T10:27:16;97891.03;;;21.86;38.07
54306;BME280;66145;45.188;5.712;2024-03-02T10:29:45;97876.91;;;21.88;38.00
54306;BME280;66145;45.188;5.712;2024-03-02T10:32:11;97868.53;;;21.81;38.01
54306;BME280;66145;45.188;5.712;2024-03-02T10:34:37;97830.56;;;21.67;37.90
54306;BME280;66145;45.188;5.712;2024-03-02T10:37:03;97859.97;;;21.86;38.20
54306;BME280;66145;45.188;5.712;2024-03-02T10:39:28;97862.28;;;21.84;38.27
54306;BME280;66145;45.188;5.712;2024-03-02T10:44:22;97829.47;;;21.71;37.89
54306;BME280;66145;45.188;5.712;2024-03-02T10:46:49;97844.56;;;21.81;38.10
54306;BME280;66145;45.188;5.712;2024-03-02T10:49:14;97819.25;;;21.72;37.80
54306;BME280;66145;45.188;5.712;2024-03-02T10:51:40;97819.84;;;21.85;37.96
54306;BME280;66145;45.188;5.712;2024-03-02T10:54:05;97821.75;;;21.81;37.87
54306;BME280;66145;45.188;5.712;2024-03-02T10:56:32;97802.84;;;21.79;38.03
54306;BME280;66145;45.188;5.712;2024-03-02T10:59:19;97810.41;;;21.86;37.99
54306;BME280;66145;45.188;5.712;2024-03-02T11:01:47;97800.94;;;21.83;38.09
54306;BME280;66145;45.188;5.712;2024-03-02T11:04:15;97769.72;;;21.72;37.50
54306;BME280;66145;45.188;5.712;2024-03-02T11:06:48;97771.38;;;21.77;38.10
54306;BME280;66145;45.188;5.712;2024-03-02T11:09:16;97782.06;;;21.82;38.09
54306;BME280;66145;45.188;5.712;2024-03-02T11:11:43;97770.75;;;21.91;38.03
54306;BME280;66145;45.188;5.712;2024-03-02T11:14:15;97745.06;;;21.79;38.16
54306;BME280;66145;45.188;5.712;2024-03-02T11:16:42;97755.00;;;21.87;38.08
54306;BME280;66145;45.188;5.712;2024-03-02T11:19:11;97758.56;;;21.88;38.14
54306;BME280;66145;45.188;5.712;2024-03-02T11:21:38;97749.03;;;21.82;37.99
54306;BME280;66145;45.188;5.712;2024-03-02T11:26:48;97724.66;;;21.84;38.05
54306;BME280;66145;45.188;5.712;2024-03-02T11:32:00;97729.13;;;21.92;38.30
54306;BME280;66145;45.188;5.712;2024-03-02T11:36:54;97719.66;;;21.90;38.11
54306;BME280;66145;45.188;5.712;2024-03-02T11:39:20;97714.94;;;21.90;38.31
54306;BME280;66145;45.188;5.712;2024-03-02T11:41:45;97707.09;;;21.92;37.99
54306;BME280;66145;45.188;5.712;2024-03-02T11:44:10;97708.69;;;21.93;38.22
54306;BME280;66145;45.188;5.712;2024-03-02T11:46:39;97686.38;;;22.02;38.47
54306;BME280;66145;45.188;5.712;2024-03-02T11:49:04;97685.84;;;21.93;38.22
54306;BME280;66145;45.188;5.712;2024-03-02T11:51:35;97687.00;;;21.88;38.48
54306;BME280;66145;45.188;5.712;2024-03-02T11:54:02;97690.44;;;21.81;38.44
54306;BME280;66145;45.188;5.712;2024-03-02T11:56:28;97680.50;;;21.73;38.73
54306;BME280;66145;45.188;5.712;2024-03-02T11:58:56;97653.13;;;21.57;38.68
54306;BME280;66145;45.188;5.712;2024-03-02T12:01:23;97679.63;;;21.65;38.95
54306;BME280;66145;45.188;5.712;2024-03-02T12:03:48;97657.78;;;21.53;38.94
54306;BME280;66145;45.188;5.712;2024-03-02T12:06:14;97659.78;;;21.56;39.07
54306;BME280;66145;45.188;5.712;2024-03-02T12:08:40;97652.25;;;21.49;39.19
54306;BME280;66145;45.188;5.712;2024-03-02T12:11:05;97632.47;;;21.40;39.22
54306;BME280;66145;45.188;5.712;2024-03-02T12:13:31;97642.78;;;21.47;39.13
54306;BME280;66145;45.188;5.712;2024-03-02T12:15:58;97627.25;;;21.31;39.28
54306;BME280;66145;45.188;5.712;2024-03-02T12:18:23;97628.84;;;21.32;39.52
54306;BME280;66145;45.188;5.712;2024-03-02T12:20:50;97609.78;;;21.20;39.45
54306;BME280;66145;45.188;5.712;2024-03-02T12:23:21;97622.44;;;21.24;39.78
54306;BME280;66145;45.188;5.712;2024-03-02T12:25:47;97609.78;;;21.20;39.94
54306;BME280;66145;45.188;5.712;2024-03-02T12:28:13;97587.22;;;21.07;39.98
54306;BME280;66145;45.188;5.712;2024-03-02T12:30:38;97603.81;;;21.14;40.24
54306;BME280;66145;45.188;5.712;2024-03-02T12:33:04;97584.78;;;21.02;40.50
54306;BME280;66145;45.188;5.712;2024-03-02T12:35:30;97600.53;;;21.05;40.49
54306;BME280;66145;45.188;5.712;2024-03-02T12:37:55;97601.09;;;20.91;40.50
54306;BME280;66145;45.188;5.712;2024-03-02T12:40:21;97591.34;;;20.93;40.48
54306;BME280;66145;45.188;5.712;2024-03-02T12:42:48;97596.28;;;20.84;40.66
54306;BME280;66145;45.188;5.712;2024-03-02T12:45:15;97594.28;;;20.81;40.92
54306;BME280;66145;45.188;5.712;2024-03-02T12:47:41;97584.81;;;20.78;41.02
54306;BME280;66145;45.188;5.712;2024-03-02T12:50:07;97603.38;;;20.85;41.25
54306;BME280;66145;45.188;5.712;2024-03-02T12:52:34;97608.13;;;20.88;40.90
54306;BME280;66145;45.188;5.712;2024-03-02T12:55:00;97611.66;;;20.89;41.20
54306;BME280;66145;45.188;5.712;2024-03-02T12:57:28;97592.25;;;20.78;41.17
54306;BME280;66145;45.188;5.712;2024-03-02T13:00:00;97601.78;;;20.84;41.03
54306;BME280;66145;45.188;5.712;2024-03-02T13:02:30;97604.97;;;20.86;41.38
54306;BME280;66145;45.188;5.712;2024-03-02T13:04:57;97602.47;;;20.77;41.33
54306;BME280;66145;45.188;5.712;2024-03-02T13:07:26;97609.25;;;20.84;41.41
54306;BME280;66145;45.188;5.712;2024-03-02T13:09:52;97595.50;;;20.84;41.62